Time;durP1;ratioP1;P1;durP2;ratioP2;P2;SDS_P1;SDS_P2;PMS_P1;PMS_P2;Temp;Humidity;BMP_temperature;BMP_pressure;BME280_temperature;BME280_humidity;BME280_pressure;Samples;Min_cycle;Max_cycle;Signal;HPM_P1;HPM_P2
2021/09/02 00:02:08;;;;;;;6.88;4.60;;;16.70;98.60;;;;;;5027027;28;20112;-49
2021/09/02 00:04:34;;;;;;;7.10;4.65;;;16.70;98.60;;;;;;5095841;28;20076;-49
2021/09/02 00:07:00;;;;;;;12.20;5.00;;;16.60;98.60;;;;;;5095794;28;20435;-48
2021/09/02 00:09:26;;;;;;;6.18;4.50;;;16.60;98.60;;;;;;5095496;28;20024;-49
2021/09/02 00:11:52;;;;;;;5.30;3.95;;;16.60;98.70;;;;;;5095389;28;20039;-47
2021/09/02 00:14:18;;;;;;;7.63;4.80;;;16.60;98.70;;;;;;5095556;28;20085;-48
2021/09/02 00:16:44;;;;;;;6.03;4.75;;;16.60;98.70;;;;;;5060288;28;20081;-49
2021/09/02 00:19:10;;;;;;;7.78;4.93;;;16.60;98.70;;;;;;5095321;28;20026;-49
2021/09/02 00:21:37;;;;;;;10.27;4.78;;;16.60;98.60;;;;;;5095122;28;20023;-48
2021/09/02 00:24:03;;;;;;;6.22;4.82;;;16.50;98.70;;;;;;5095160;28;20057;-48
2021/09/02 00:26:29;;;;;;;6.93;5.00;;;16.50;98.90;;;;;;5095259;28;20360;-48
2021/09/02 00:28:55;;;;;;;8.20;5.38;;;16.40;99.00;;;;;;5026746;28;20029;-47
2021/09/02 00:31:21;;;;;;;8.00;5.28;;;16.40;99.00;;;;;;5094994;28;20360;-49
2021/09/02 00:33:46;;;;;;;7.22;4.82;;;16.40;98.90;;;;;;5095337;28;20032;-50
2021/09/02 00:36:13;;;;;;;9.07;5.57;;;16.40;98.90;;;;;;5094472;28;20472;-48
2021/09/02 00:38:41;;;;;;;6.65;4.90;;;16.40;99.00;;;;;;5094956;28;20035;-48
2021/09/02 00:41:07;;;;;;;6.65;5.53;;;16.40;99.00;;;;;;5059487;28;20399;-50
2021/09/02 00:43:40;;;;;;;9.38;5.03;;;16.40;99.00;;;;;;5076795;28;20028;-48
2021/09/02 00:46:11;;;;;;;6.57;4.82;;;16.40;99.10;;;;;;5094997;28;20039;-50
2021/09/02 00:48:37;;;;;;;7.90;4.88;;;16.50;99.50;;;;;;5094955;28;20027;-49
2021/09/02 00:51:03;;;;;;;12.82;5.78;;;16.50;99.10;;;;;;5094733;28;20027;-48
2021/09/02 00:53:31;;;;;;;7.63;5.22;;;16.50;99.10;;;;;;5094640;28;20036;-50
2021/09/02 00:56:04;;;;;;;7.28;4.82;;;16.50;99.10;;;;;;5094649;28;20061;-48
2021/09/02 00:58:30;;;;;;;6.75;5.25;;;16.40;99.20;;;;;;5094688;28;20043;-49
2021/09/02 01:00:56;;;;;;;6.82;4.85;;;16.30;99.40;;;;;;5094382;28;20027;-50
2021/09/02 01:03:22;;;;;;;12.50;5.78;;;16.20;99.40;;;;;;5059295;28;20024;-50
2021/09/02 01:05:50;;;;;;;7.35;5.25;;;16.30;99.50;;;;;;5094392;28;20028;-48
2021/09/02 01:08:17;;;;;;;8.40;5.70;;;16.20;99.60;;;;;;5094443;28;20016;-49
2021/09/02 01:10:49;;;;;;;8.02;5.45;;;16.20;99.60;;;;;;5094348;28;20063;-48
2021/09/02 01:13:15;;;;;;;7.67;5.10;;;16.20;99.70;;;;;;5094342;28;20097;-48
2021/09/02 01:15:40;;;;;;;7.60;5.53;;;16.00;99.90;;;;;;5094273;28;20020;-49
2021/09/02 01:18:06;;;;;;;6.85;5.28;;;16.00;99.90;;;;;;5094290;28;20426;-48
2021/09/02 01:20:32;;;;;;;7.80;5.47;;;15.90;99.90;;;;;;5025820;28;20039;-47
2021/09/02 01:23:01;;;;;;;7.78;5.85;;;15.90;99.90;;;;;;5094201;28;20027;-50
2021/09/02 01:25:35;;;;;;;10.15;5.70;;;15.90;99.90;;;;;;5075154;28;20125;-48
2021/09/02 01:28:03;;;;;;;8.23;5.88;;;16.00;99.90;;;;;;5093923;28;20089;-49
2021/09/02 01:30:33;;;;;;;9.02;5.45;;;16.00;99.90;;;;;;5093871;28;20471;-49
2021/09/02 01:32:59;;;;;;;7.15;4.97;;;16.00;99.90;;;;;;5094129;28;20497;-49
2021/09/02 01:35:26;;;;;;;7.90;5.97;;;16.00;99.90;;;;;;5093746;28;20479;-47
2021/09/02 01:37:57;;;;;;;14.38;6.22;;;16.00;99.90;;;;;;5093886;28;20089;-48
2021/09/02 01:40:31;;;;;;;6.50;5.25;;;15.90;99.90;;;;;;5058381;28;20119;-50
2021/09/02 01:42:59;;;;;;;8.00;5.57;;;15.90;99.90;;;;;;5075275;28;20034;-50
2021/09/02 01:45:25;;;;;;;9.02;5.45;;;15.80;99.90;;;;;;5093864;28;20036;-48
2021/09/02 01:47:54;;;;;;;7.80;5.35;;;15.90;99.90;;;;;;5093108;28;20517;-48
2021/09/02 01:50:25;;;;;;;10.82;7.22;;;15.90;99.90;;;;;;5093867;28;20020;-48
2021/09/02 01:52:53;;;;;;;7.40;5.93;;;15.80;99.90;;;;;;5050583;28;20056;-50
2021/09/02 01:55:24;;;;;;;11.55;5.47;;;15.70;99.90;;;;;;5051344;28;20045;-49
2021/09/02 01:57:50;;;;;;;8.00;5.43;;;15.70;99.90;;;;;;5050960;28;20053;-49
2021/09/02 02:00:17;;;;;;;7.97;5.85;;;15.60;99.90;;;;;;5001710;28;20037;-50
2021/09/02 02:02:43;;;;;;;8.85;6.07;;;15.60;99.90;;;;;;5051333;28;20037;-50
2021/09/02 02:05:10;;;;;;;7.40;5.35;;;15.50;99.90;;;;;;5050952;28;20025;-48
2021/09/02 02:07:38;;;;;;;10.57;5.90;;;15.60;99.90;;;;;;5051689;28;20091;-49
2021/09/02 02:10:07;;;;;;;10.55;6.78;;;15.50;99.90;;;;;;5051140;28;20032;-50
2021/09/02 02:12:33;;;;;;;10.70;6.05;;;15.60;99.90;;;;;;5051340;28;20040;-50
2021/09/02 02:14:59;;;;;;;9.15;5.63;;;15.50;99.90;;;;;;5001950;28;20049;-48
2021/09/02 02:17:25;;;;;;;7.65;4.93;;;15.60;99.90;;;;;;5051138;28;20025;-48
2021/09/02 02:19:51;;;;;;;6.75;5.18;;;15.60;99.90;;;;;;5051229;28;20040;-49
2021/09/02 02:22:16;;;;;;;8.80;5.25;;;15.60;99.90;;;;;;5049725;28;20045;-50
2021/09/02 02:24:42;;;;;;;9.13;5.63;;;15.60;99.90;;;;;;5088357;28;20148;-49
2021/09/02 02:27:08;;;;;;;8.45;6.07;;;15.60;99.90;;;;;;5074622;28;20364;-50
2021/09/02 02:29:36;;;;;;;8.95;5.38;;;15.60;99.90;;;;;;5093531;28;20020;-50
2021/09/02 02:32:02;;;;;;;9.57;5.45;;;15.50;99.90;;;;;;5093397;28;20024;-51
2021/09/02 02:34:30;;;;;;;8.50;5.18;;;15.40;99.90;;;;;;5093584;28;20382;-49
2021/09/02 02:36:59;;;;;;;7.05;5.32;;;15.40;99.90;;;;;;5093251;28;20024;-48
2021/09/02 02:39:25;;;;;;;7.75;5.05;;;15.40;99.90;;;;;;5093221;28;20028;-49
2021/09/02 02:41:50;;;;;;;5.72;4.53;;;15.50;99.90;;;;;;5024590;28;20036;-50
2021/09/02 02:44:16;;;;;;;11.07;5.75;;;15.50;99.90;;;;;;5093647;28;20028;-49
2021/09/02 02:46:42;;;;;;;8.77;5.90;;;15.50;99.90;;;;;;5093581;28;20034;-49
2021/09/02 02:49:08;;;;;;;10.52;5.53;;;15.50;99.90;;;;;;5024548;28;20116;-50
2021/09/02 02:51:35;;;;;;;10.57;6.53;;;15.50;99.90;;;;;;5058093;28;20064;-48
2021/09/02 02:54:01;;;;;;;8.48;5.05;;;15.60;99.90;;;;;;5058075;28;20050;-48
2021/09/02 02:56:27;;;;;;;6.97;5.22;;;15.50;99.90;;;;;;5093276;28;20063;-48
2021/09/02 02:58:53;;;;;;;8.15;5.10;;;15.50;99.90;;;;;;5058537;28;20092;-50
2021/09/02 03:01:19;;;;;;;8.38;5.80;;;15.40;99.90;;;;;;5061365;28;20036;-50
2021/09/02 03:03:44;;;;;;;10.73;5.40;;;15.40;99.90;;;;;;5061731;28;20399;-50
2021/09/02 03:06:12;;;;;;;10.80;5.78;;;15.50;99.90;;;;;;5054671;28;20048;-49
2021/09/02 03:08:38;;;;;;;8.23;5.63;;;15.40;99.90;;;;;;5054842;28;20045;-50
2021/09/02 03:11:05;;;;;;;12.07;5.72;;;15.40;99.90;;;;;;5054296;28;20032;-50
2021/09/02 03:13:30;;;;;;;8.20;5.40;;;15.50;99.90;;;;;;5054090;28;20042;-50
2021/09/02 03:15:56;;;;;;;8.05;5.53;;;15.40;99.90;;;;;;5004761;28;20044;-50
2021/09/02 03:18:22;;;;;;;7.05;5.55;;;15.40;99.90;;;;;;5054223;28;20029;-49
2021/09/02 03:20:48;;;;;;;8.00;5.85;;;15.40;99.90;;;;;;5054018;28;20174;-49
2021/09/02 03:23:14;;;;;;;6.35;5.30;;;15.40;99.90;;;;;;5054293;28;20047;-48
2021/09/02 03:25:42;;;;;;;10.38;5.32;;;15.30;99.90;;;;;;5004925;28;20068;-49
2021/09/02 03:28:08;;;;;;;6.68;5.15;;;15.30;99.90;;;;;;4971884;28;20408;-49
2021/09/02 03:30:34;;;;;;;6.72;5.05;;;15.20;99.90;;;;;;5004289;28;20040;-49
2021/09/02 03:32:59;;;;;;;12.35;5.97;;;15.20;99.90;;;;;;5004822;28;20110;-49
2021/09/02 03:35:25;;;;;;;9.18;5.40;;;15.20;99.90;;;;;;5053849;28;20449;-49
2021/09/02 03:37:51;;;;;;;9.95;4.85;;;15.20;99.90;;;;;;5087686;28;20070;-49
2021/09/02 03:40:17;;;;;;;9.65;6.00;;;15.30;99.90;;;;;;5060650;28;20032;-49
2021/09/02 03:42:43;;;;;;;9.50;6.60;;;15.30;99.90;;;;;;5096033;28;20395;-51
2021/09/02 03:45:09;;;;;;;7.57;5.38;;;15.30;99.90;;;;;;5077560;28;20085;-50
2021/09/02 03:47:35;;;;;;;7.43;5.30;;;15.30;99.90;;;;;;4962451;28;20035;-49
2021/09/02 03:50:02;;;;;;;11.27;6.05;;;15.30;99.90;;;;;;5095887;28;20525;-50
2021/09/02 03:52:28;;;;;;;8.48;5.60;;;15.30;99.90;;;;;;5092937;28;20032;-49
2021/09/02 03:54:54;;;;;;;7.03;5.10;;;15.30;99.90;;;;;;5095665;28;20507;-49
2021/09/02 03:57:20;;;;;;;9.63;5.72;;;15.20;99.90;;;;;;5096161;28;20024;-49
2021/09/02 03:59:46;;;;;;;7.10;5.43;;;15.20;99.90;;;;;;5026650;28;20079;-50
2021/09/02 04:02:12;;;;;;;8.70;5.30;;;15.20;99.90;;;;;;5076099;28;20531;-50
2021/09/02 04:04:37;;;;;;;9.57;5.05;;;15.20;99.90;;;;;;5075423;28;20035;-50
2021/09/02 04:07:05;;;;;;;7.43;5.15;;;15.10;99.90;;;;;;5040368;28;20040;-50
2021/09/02 04:09:33;;;;;;;8.82;5.78;;;15.00;99.90;;;;;;5024315;28;20040;-50
2021/09/02 04:11:58;;;;;;;10.40;5.68;;;15.00;99.90;;;;;;5074558;28;20025;-49
2021/09/02 04:14:24;;;;;;;6.68;4.97;;;15.00;99.90;;;;;;5075233;28;20613;-48
2021/09/02 04:16:50;;;;;;;7.60;5.28;;;15.00;99.90;;;;;;5040768;28;20111;-50
2021/09/02 04:19:16;;;;;;;8.90;5.10;;;15.00;99.90;;;;;;5056997;28;20032;-50
2021/09/02 04:21:41;;;;;;;9.40;5.22;;;14.90;99.90;;;;;;5075108;28;20028;-50
2021/09/02 04:24:07;;;;;;;9.35;5.18;;;14.90;99.90;;;;;;5075131;28;20028;-49
2021/09/02 04:26:33;;;;;;;8.98;5.30;;;14.90;99.90;;;;;;5075461;28;20033;-50
2021/09/02 04:28:58;;;;;;;7.53;5.22;;;14.90;99.90;;;;;;5074873;28;20517;-49
2021/09/02 04:31:24;;;;;;;7.18;5.35;;;14.90;99.90;;;;;;5074889;28;20029;-48
2021/09/02 04:33:50;;;;;;;6.63;4.63;;;14.90;99.90;;;;;;5074951;28;20039;-48
2021/09/02 04:36:16;;;;;;;9.57;5.82;;;14.90;99.90;;;;;;5073146;28;20475;-50
2021/09/02 04:38:42;;;;;;;10.93;5.05;;;14.90;99.90;;;;;;5072929;28;20373;-49
2021/09/02 04:41:08;;;;;;;7.10;4.95;;;14.90;99.90;;;;;;5039768;28;20098;-50
2021/09/02 04:43:34;;;;;;;7.47;5.70;;;15.00;99.90;;;;;;5074645;28;20021;-49
2021/09/02 04:46:00;;;;;;;10.88;6.18;;;15.00;99.90;;;;;;5039758;28;20037;-49
2021/09/02 04:48:25;;;;;;;6.88;4.97;;;15.10;99.90;;;;;;5074364;28;20028;-50
2021/09/02 04:50:51;;;;;;;10.80;6.07;;;15.10;99.90;;;;;;5074391;28;20055;-49
2021/09/02 04:53:19;;;;;;;9.35;6.00;;;15.20;99.90;;;;;;5039571;28;20043;-49
2021/09/02 04:55:44;;;;;;;6.82;5.18;;;15.20;99.90;;;;;;5074382;28;20391;-51
2021/09/02 04:58:12;;;;;;;9.57;5.35;;;15.30;99.90;;;;;;5039327;28;20041;-49
2021/09/02 05:00:39;;;;;;;8.80;5.35;;;15.30;99.90;;;;;;5326449;22;20054;-48
2021/09/02 05:03:07;;;;;;;7.65;4.65;;;15.30;99.90;;;;;;5076608;28;20038;-50
2021/09/02 05:05:32;;;;;;;7.75;5.05;;;15.40;99.90;;;;;;5115277;28;20019;-50
2021/09/02 05:07:59;;;;;;;6.43;4.97;;;15.40;99.90;;;;;;5115229;28;20024;-48
2021/09/02 05:10:26;;;;;;;9.98;5.13;;;15.50;99.90;;;;;;5080003;28;20031;-49
2021/09/02 05:12:52;;;;;;;6.85;5.07;;;15.50;99.90;;;;;;5114799;28;20524;-50
2021/09/02 05:15:18;;;;;;;7.82;5.30;;;15.50;99.90;;;;;;5114901;28;20036;-50
2021/09/02 05:17:45;;;;;;;8.70;4.93;;;15.50;99.90;;;;;;5079474;28;20031;-50
2021/09/02 05:20:12;;;;;;;6.85;4.88;;;15.60;99.90;;;;;;5114926;28;20016;-48
2021/09/02 05:22:37;;;;;;;5.40;3.65;;;15.70;99.90;;;;;;5078854;28;20489;-48
2021/09/02 05:25:03;;;;;;;7.25;4.80;;;15.70;99.90;;;;;;5096048;28;20028;-49
2021/09/02 05:27:29;;;;;;;8.23;5.10;;;15.80;99.90;;;;;;5028862;28;20065;-50
2021/09/02 05:29:55;;;;;;;8.55;5.18;;;15.80;99.90;;;;;;5079048;28;20549;-50
2021/09/02 05:32:21;;;;;;;6.97;5.38;;;15.80;99.90;;;;;;5115074;28;20363;-49
2021/09/02 05:34:46;;;;;;;7.45;5.25;;;15.80;99.90;;;;;;5114320;28;20119;-49
2021/09/02 05:37:12;;;;;;;7.13;5.50;;;15.90;99.90;;;;;;5114154;28;20027;-48
2021/09/02 05:39:38;;;;;;;9.88;5.93;;;16.00;99.90;;;;;;5078626;28;20036;-50
2021/09/02 05:42:04;;;;;;;7.70;5.07;;;16.10;99.90;;;;;;5114523;28;20024;-50
2021/09/02 05:44:30;;;;;;;8.68;5.22;;;16.10;99.90;;;;;;5078485;28;20079;-49
2021/09/02 05:46:56;;;;;;;6.95;5.00;;;16.00;99.90;;;;;;5078869;28;20042;-48
2021/09/02 05:49:23;;;;;;;7.93;4.35;;;16.10;99.90;;;;;;5114279;28;20542;-48
2021/09/02 05:51:49;;;;;;;7.88;5.40;;;16.00;99.90;;;;;;5096158;28;20032;-48
2021/09/02 05:54:15;;;;;;;6.70;4.85;;;16.10;99.90;;;;;;5094014;28;20145;-50
2021/09/02 05:56:41;;;;;;;7.93;5.13;;;16.10;99.90;;;;;;5094317;28;20020;-50
2021/09/02 05:59:07;;;;;;;8.85;4.72;;;16.20;99.90;;;;;;5093840;28;20016;-49
2021/09/02 06:01:32;;;;;;;7.97;5.10;;;16.20;99.90;;;;;;5106506;28;20073;-50
2021/09/02 06:03:59;;;;;;;12.45;4.93;;;16.30;99.90;;;;;;5095392;28;20036;-49
2021/09/02 06:06:25;;;;;;;7.88;5.28;;;16.30;99.90;;;;;;5114215;28;20020;-49
2021/09/02 06:08:51;;;;;;;7.03;5.30;;;16.40;99.90;;;;;;5061358;28;20368;-49
2021/09/02 06:11:16;;;;;;;7.32;5.15;;;16.30;99.90;;;;;;5093118;28;20067;-49
2021/09/02 06:13:42;;;;;;;5.15;3.33;;;16.30;99.90;;;;;;5093249;28;20047;-48
2021/09/02 06:16:08;;;;;;;13.32;7.10;;;16.10;99.90;;;;;;5058271;28;20086;-50
2021/09/02 06:18:34;;;;;;;6.45;4.70;;;16.40;99.90;;;;;;5093504;28;20024;-50
2021/09/02 06:21:00;;;;;;;11.07;5.93;;;16.50;99.90;;;;;;5093642;28;20028;-50
2021/09/02 06:23:25;;;;;;;8.18;5.40;;;16.70;99.90;;;;;;5093751;28;20467;-49
2021/09/02 06:25:51;;;;;;;7.35;4.93;;;16.80;99.90;;;;;;5024994;28;20034;-49
2021/09/02 06:28:17;;;;;;;7.05;4.72;;;16.70;99.90;;;;;;5093394;28;20032;-50
2021/09/02 06:30:43;;;;;;;8.52;5.22;;;16.60;99.90;;;;;;5093764;28;20028;-50
2021/09/02 06:33:08;;;;;;;8.10;5.30;;;16.60;99.90;;;;;;5093247;28;20016;-48
2021/09/02 06:35:34;;;;;;;8.98;5.15;;;16.70;99.90;;;;;;5097447;28;20028;-50
2021/09/02 06:38:00;;;;;;;8.57;6.40;;;16.80;99.90;;;;;;5062308;28;20029;-48
2021/09/02 06:40:25;;;;;;;11.85;5.43;;;17.00;99.90;;;;;;5061978;28;20563;-50
2021/09/02 06:42:51;;;;;;;9.75;5.45;;;17.10;99.90;;;;;;5097652;28;20020;-50
2021/09/02 06:45:17;;;;;;;13.48;5.65;;;17.10;99.90;;;;;;5097223;28;20077;-49
2021/09/02 06:47:44;;;;;;;9.52;6.38;;;17.10;99.90;;;;;;5097969;28;20028;-50
2021/09/02 06:50:11;;;;;;;9.85;5.88;;;17.10;99.90;;;;;;5097680;28;20073;-50
2021/09/02 06:52:38;;;;;;;13.07;6.35;;;17.30;99.90;;;;;;5097219;28;20028;-49
2021/09/02 06:55:04;;;;;;;8.57;5.60;;;17.40;99.90;;;;;;5097168;28;20032;-48
2021/09/02 06:57:30;;;;;;;8.55;4.97;;;17.70;99.90;;;;;;5096994;28;20482;-50
2021/09/02 06:59:56;;;;;;;10.15;6.55;;;17.60;99.90;;;;;;5096690;28;20052;-49
2021/09/02 07:02:22;;;;;;;7.93;5.10;;;17.70;99.90;;;;;;5097211;28;20032;-49
2021/09/02 07:04:48;;;;;;;8.27;5.53;;;17.90;99.90;;;;;;5097054;28;20028;-50
2021/09/02 07:07:14;;;;;;;8.85;5.93;;;17.90;99.90;;;;;;5097174;28;20020;-49
2021/09/02 07:09:40;;;;;;;8.57;5.93;;;18.10;99.90;;;;;;5078230;28;20031;-49
2021/09/02 07:12:06;;;;;;;9.40;5.75;;;18.20;99.90;;;;;;5096680;28;20025;-48
2021/09/02 07:14:32;;;;;;;8.73;6.32;;;18.40;99.90;;;;;;5097018;28;20050;-50
2021/09/02 07:16:58;;;;;;;10.50;5.53;;;18.60;99.90;;;;;;5061340;28;20538;-50
2021/09/02 07:19:24;;;;;;;8.80;5.30;;;18.80;99.90;;;;;;5067860;28;20543;-48
2021/09/02 07:21:50;;;;;;;9.70;5.30;;;18.90;99.90;;;;;;5116981;28;20016;-50
2021/09/02 07:24:16;;;;;;;10.52;5.93;;;19.10;99.20;;;;;;5117145;28;20069;-50
2021/09/02 07:26:42;;;;;;;8.80;5.38;;;19.20;99.20;;;;;;5098246;28;20495;-50
2021/09/02 07:29:08;;;;;;;7.15;5.53;;;19.00;99.10;;;;;;5116995;28;20450;-50
2021/09/02 07:31:35;;;;;;;7.53;4.45;;;19.30;99.10;;;;;;5116849;28;20027;-49
2021/09/02 07:34:01;;;;;;;8.65;5.88;;;19.30;98.50;;;;;;5116940;28;20035;-50
2021/09/02 07:36:27;;;;;;;9.60;6.32;;;19.50;98.70;;;;;;5117047;28;20072;-49
2021/09/02 07:38:53;;;;;;;9.05;5.32;;;19.60;97.80;;;;;;5116594;28;20052;-49
2021/09/02 07:41:19;;;;;;;8.70;5.53;;;19.80;97.60;;;;;;5117543;28;20455;-50
2021/09/02 07:43:45;;;;;;;8.18;5.88;;;20.00;96.80;;;;;;5116983;28;20024;-49
2021/09/02 07:46:12;;;;;;;7.82;5.15;;;20.10;97.00;;;;;;5115673;28;20072;-50
2021/09/02 07:48:37;;;;;;;9.60;5.47;;;20.30;96.40;;;;;;5116526;28;20023;-49
2021/09/02 07:51:03;;;;;;;11.52;5.88;;;20.30;96.80;;;;;;5079876;28;20390;-50
2021/09/02 07:53:30;;;;;;;9.23;5.82;;;20.50;95.90;;;;;;5080892;28;20039;-51
2021/09/02 07:55:56;;;;;;;8.98;5.97;;;20.60;96.00;;;;;;5116536;28;20347;-49
2021/09/02 07:58:22;;;;;;;8.65;5.60;;;20.90;95.60;;;;;;5116523;28;20031;-48
2021/09/02 08:00:48;;;;;;;7.60;4.97;;;21.10;95.00;;;;;;5080457;28;20384;-50
2021/09/02 08:03:14;;;;;;;7.35;5.03;;;21.30;94.50;;;;;;5116550;28;20107;-48
2021/09/02 08:05:40;;;;;;;7.07;5.13;;;21.30;94.20;;;;;;5116358;28;20034;-50
2021/09/02 08:08:07;;;;;;;8.40;5.05;;;21.50;94.20;;;;;;5097431;28;20032;-49
2021/09/02 08:10:33;;;;;;;7.47;5.35;;;21.70;93.50;;;;;;5063949;28;20035;-48
2021/09/02 08:12:59;;;;;;;7.43;4.97;;;21.90;93.00;;;;;;5115997;28;20020;-49
2021/09/02 08:15:25;;;;;;;6.00;4.25;;;22.10;93.00;;;;;;5115927;28;20027;-50
2021/09/02 08:17:52;;;;;;;6.88;5.15;;;22.10;91.70;;;;;;5115865;28;20030;-48
2021/09/02 08:20:20;;;;;;;8.85;5.22;;;22.40;91.80;;;;;;5114383;28;20447;-50
2021/09/02 08:22:47;;;;;;;6.93;4.40;;;22.30;91.80;;;;;;5095464;28;20018;-50
2021/09/02 08:25:14;;;;;;;7.53;4.85;;;22.30;91.50;;;;;;5060195;28;20031;-50
2021/09/02 08:27:41;;;;;;;7.30;5.18;;;22.50;91.20;;;;;;5060383;28;20044;-49
2021/09/02 08:30:08;;;;;;;6.05;4.70;;;22.50;91.00;;;;;;5059912;28;20089;-50
2021/09/02 08:32:34;;;;;;;10.82;4.80;;;22.60;90.40;;;;;;5027028;28;20422;-49
2021/09/02 08:35:00;;;;;;;6.85;5.05;;;;;;;;;;5095008;28;20052;-49
2021/09/02 08:37:26;;;;;;;8.32;4.93;;;22.70;90.90;;;;;;5098207;28;20036;-49
2021/09/02 08:39:52;;;;;;;6.88;4.95;;;22.60;90.10;;;;;;5114413;28;20124;-48
2021/09/02 08:42:18;;;;;;;7.00;4.78;;;23.10;89.90;;;;;;5115717;28;20373;-50
2021/09/02 08:44:44;;;;;;;7.05;4.60;;;22.90;88.60;;;;;;5115642;28;20363;-48
2021/09/02 08:47:11;;;;;;;9.25;4.35;;;23.10;90.20;;;;;;5053007;28;20093;-49
2021/09/02 08:49:37;;;;;;;10.70;5.47;;;23.50;90.10;;;;;;5102370;28;20051;-49
2021/09/02 08:52:03;;;;;;;7.68;4.90;;;23.50;87.50;;;;;;5115525;28;20027;-49
2021/09/02 08:54:31;;;;;;;6.28;4.63;;;23.30;84.90;;;;;;5096585;28;20376;-48
2021/09/02 08:56:57;;;;;;;6.28;4.90;;;23.30;85.40;;;;;;5105097;28;20024;-49
2021/09/02 08:59:23;;;;;;;7.20;4.70;;;23.40;85.90;;;;;;5059713;28;20032;-49
2021/09/02 09:01:49;;;;;;;10.13;5.10;;;24.00;85.00;;;;;;5094494;28;20422;-50
2021/09/02 09:04:16;;;;;;;7.57;4.47;;;23.80;85.80;;;;;;5094572;28;20379;-49
2021/09/02 09:06:42;;;;;;;7.95;4.88;;;24.10;83.00;;;;;;5094538;28;20021;-49
2021/09/02 09:09:17;;;;;;;6.60;4.35;;;24.10;83.60;;;;;;5094766;28;20020;-51
2021/09/02 09:11:48;;;;;;;5.15;4.47;;;24.30;82.90;;;;;;5094869;28;20024;-49
2021/09/02 09:14:23;;;;;;;9.05;4.72;;;24.50;81.30;;;;;;5076137;28;20437;-49
2021/09/02 09:16:52;;;;;;;9.15;5.05;;;25.00;81.50;;;;;;5094289;28;20032;-49
2021/09/02 09:19:40;;;;;;;6.88;5.15;;;25.50;79.60;;;;;;5094619;28;20020;-50
2021/09/02 09:22:08;;;;;;;6.53;4.80;;;25.20;79.30;;;;;;5092559;28;20085;-51
2021/09/02 09:24:50;;;;;;;6.90;4.07;;;25.20;78.10;;;;;;5092987;28;20044;-50
2021/09/02 09:27:22;;;;;;;10.65;4.35;;;25.20;77.10;;;;;;5057265;28;20561;-49
2021/09/02 09:30:06;;;;;;;7.75;4.57;;;25.50;76.90;;;;;;5092978;28;20038;-51
2021/09/02 09:32:48;;;;;;;7.97;4.68;;;25.50;78.30;;;;;;5092926;28;20034;-50
2021/09/02 09:35:38;;;;;;;7.18;4.28;;;25.00;78.70;;;;;;5056665;28;20139;-51
2021/09/02 09:38:16;;;;;;;5.65;4.20;;;24.60;78.30;;;;;;5073924;28;20031;-49
2021/09/02 09:40:50;;;;;;;6.90;5.50;;;24.40;77.30;;;;;;5092905;28;20524;-50
2021/09/02 09:43:23;;;;;;;6.65;4.40;;;25.10;79.10;;;;;;5092778;28;20115;-50
2021/09/02 09:45:56;;;;;;;7.40;4.88;;;26.10;77.40;;;;;;5092705;28;20027;-50
2021/09/02 09:48:38;;;;;;;5.35;4.47;;;25.70;75.90;;;;;;5092159;28;20116;-51
2021/09/02 09:51:18;;;;;;;8.80;4.95;;;25.00;76.00;;;;;;5040108;28;20055;-51
2021/09/02 09:53:52;;;;;;;7.18;4.25;;;24.90;77.10;;;;;;5092747;28;20036;-51
2021/09/02 09:56:24;;;;;;;6.50;4.53;;;25.50;78.20;;;;;;5092474;28;20127;-51
2021/09/02 09:58:52;;;;;;;7.38;5.32;;;25.50;76.10;;;;;;5092661;28;20447;-51
2021/09/02 10:01:18;;;;;;;5.82;3.78;;;;;;;;;;5091807;28;20071;-50
2021/09/02 10:03:51;;;;;;;5.78;4.30;;;;;;;;;;5092467;28;20035;-51
2021/09/02 10:06:18;;;;;;;7.30;4.05;;;;;;;;;;5092550;28;20020;-51
2021/09/02 10:08:45;;;;;;;7.13;5.38;;;;;;;;;;5091814;28;20441;-50
2021/09/02 10:11:14;;;;;;;10.88;4.88;;;26.70;98.20;;;;;;5092448;28;20052;-49
2021/09/02 10:13:41;;;;;;;14.20;5.30;;;;;;;;;;5091803;28;20491;-50
2021/09/02 10:16:07;;;;;;;9.07;4.97;;;27.90;72.50;;;;;;5093797;28;20042;-51
2021/09/02 10:18:41;;;;;;;6.63;4.00;;;27.90;72.90;;;;;;5058373;28;20418;-50
2021/09/02 10:21:08;;;;;;;5.13;4.22;;;28.10;72.00;;;;;;5093340;28;20035;-51
2021/09/02 10:23:35;;;;;;;7.47;5.03;;;27.90;69.90;;;;;;5074873;28;20085;-50
2021/09/02 10:26:01;;;;;;;7.20;4.47;;;27.30;70.70;;;;;;5093358;28;20047;-51
2021/09/02 10:28:35;;;;;;;8.38;4.45;;;27.10;71.30;;;;;;5058397;28;20123;-51
2021/09/02 10:31:21;;;;;;;6.32;4.28;;;26.90;70.80;;;;;;5074756;28;20051;-50
2021/09/02 10:33:48;;;;;;;6.63;4.35;;;26.50;71.40;;;;;;5093527;28;20036;-50
2021/09/02 10:36:13;;;;;;;5.20;4.47;;;25.60;71.70;;;;;;5074898;28;20040;-49
2021/09/02 10:38:41;;;;;;;6.82;4.07;;;25.70;72.30;;;;;;5093489;28;20040;-51
2021/09/02 10:41:09;;;;;;;5.57;3.63;;;25.60;71.20;;;;;;5093696;28;20040;-50
2021/09/02 10:43:45;;;;;;;7.50;4.35;;;25.10;72.30;;;;;;5090216;28;20024;-51
2021/09/02 10:46:31;;;;;;;6.63;4.55;;;24.80;72.30;;;;;;5093222;28;20375;-49
2021/09/02 10:49:19;;;;;;;6.40;4.35;;;25.70;74.50;;;;;;5058052;28;20181;-50
2021/09/02 10:51:46;;;;;;;8.02;4.75;;;25.70;71.60;;;;;;5093431;28;20035;-50
2021/09/02 10:54:14;;;;;;;11.18;4.78;;;25.30;71.60;;;;;;5057810;28;20040;-49
2021/09/02 10:56:54;;;;;;;5.82;4.15;;;25.10;73.70;;;;;;5093008;28;20036;-49
2021/09/02 10:59:40;;;;;;;6.70;4.40;;;24.80;73.60;;;;;;5092969;28;20071;-51
2021/09/02 11:02:08;;;;;;;6.95;4.60;;;24.60;73.30;;;;;;5058011;28;20105;-50
2021/09/02 11:04:36;;;;;;;7.43;4.88;;;24.90;74.50;;;;;;5092968;28;20420;-50
2021/09/02 11:07:02;;;;;;;4.60;3.72;;;25.70;74.40;;;;;;5093193;28;20024;-49
2021/09/02 11:09:29;;;;;;;5.80;4.40;;;26.10;72.20;;;;;;5057681;28;20051;-51
2021/09/02 11:11:55;;;;;;;6.82;4.78;;;25.90;72.60;;;;;;5093090;28;20486;-50
2021/09/02 11:14:21;;;;;;;5.45;3.75;;;26.10;70.50;;;;;;5092843;28;20043;-49
2021/09/02 11:16:47;;;;;;;6.07;4.43;;;26.80;70.60;;;;;;5074850;28;20467;-49
2021/09/02 11:19:12;;;;;;;5.75;3.92;;;27.10;70.00;;;;;;5093061;28;20040;-49
2021/09/02 11:21:38;;;;;;;6.10;3.78;;;27.30;69.00;;;;;;5096575;28;20032;-50
2021/09/02 11:24:07;;;;;;;8.93;4.28;;;;;;;;;;5096768;28;20467;-50
2021/09/02 11:26:38;;;;;;;8.52;4.03;;;;;;;;;;5096636;28;20036;-49
2021/09/02 11:29:05;;;;;;;5.93;4.20;;;27.70;66.40;;;;;;5096313;28;20036;-51
2021/09/02 11:31:32;;;;;;;8.93;5.00;;;27.40;68.80;;;;;;5096225;28;20099;-50
2021/09/02 11:33:58;;;;;;;6.90;4.55;;;26.20;68.90;;;;;;5078018;28;20055;-50
2021/09/02 11:36:25;;;;;;;5.88;3.40;;;26.20;70.70;;;;;;5096473;28;20114;-50
2021/09/02 11:39:07;;;;;;;6.95;3.83;;;26.40;69.20;;;;;;5061637;28;20119;-49
2021/09/02 11:41:33;;;;;;;4.60;3.40;;;26.70;69.10;;;;;;5096356;28;20036;-49
2021/09/02 11:43:59;;;;;;;6.25;3.63;;;27.10;69.40;;;;;;5096392;28;20066;-49
2021/09/02 11:46:25;;;;;;;5.53;3.63;;;27.40;67.50;;;;;;5094833;28;20082;-49
2021/09/02 11:48:53;;;;;;;5.30;3.75;;;27.40;70.30;;;;;;5076001;28;20047;-50
2021/09/02 11:51:23;;;;;;;9.10;4.00;;;27.20;67.80;;;;;;5094845;28;20069;-50
2021/09/02 11:54:04;;;;;;;4.43;3.45;;;27.50;68.50;;;;;;5094804;28;20044;-49
2021/09/02 11:56:31;;;;;;;7.00;3.73;;;27.50;67.20;;;;;;5094785;28;20067;-50
2021/09/02 11:58:58;;;;;;;5.53;3.60;;;;;;;;;;5094739;28;20265;-50
2021/09/02 12:01:24;;;;;;;6.50;4.00;;;;;;;;;;5094018;28;20056;-50
2021/09/02 12:03:50;;;;;;;5.72;3.40;;;28.10;66.50;;;;;;5094679;28;20028;-50
2021/09/02 12:06:31;;;;;;;6.53;3.63;;;28.40;65.00;;;;;;5094602;28;20534;-50
2021/09/02 12:08:58;;;;;;;4.83;3.77;;;;;;;;;;5094597;28;20043;-50
2021/09/02 12:11:25;;;;;;;4.93;3.40;;;28.50;63.70;;;;;;5094719;28;20600;-50
2021/09/02 12:13:55;;;;;;;4.47;3.53;;;28.60;64.20;;;;;;5093743;28;20106;-49
2021/09/02 12:16:29;;;;;;;8.65;3.53;;;28.20;65.30;;;;;;5103950;28;20391;-49
2021/09/02 12:18:59;;;;;;;5.18;3.45;;;28.60;64.90;;;;;;5110327;28;20028;-50
2021/09/02 12:21:29;;;;;;;5.40;3.35;;;28.80;64.30;;;;;;5065970;28;20058;-50
2021/09/02 12:23:56;;;;;;;6.28;3.58;;;28.40;64.40;;;;;;5097847;28;20043;-51
2021/09/02 12:26:23;;;;;;;5.30;3.45;;;28.30;65.80;;;;;;5102043;28;20041;-49
2021/09/02 12:28:55;;;;;;;4.32;3.10;;;28.40;64.10;;;;;;5066913;28;20108;-49
2021/09/02 12:31:26;;;;;;;6.97;4.03;;;28.50;63.80;;;;;;5050582;28;20037;-49
2021/09/02 12:33:53;;;;;;;5.13;3.17;;;28.30;63.70;;;;;;5031085;28;20052;-50
2021/09/02 12:36:19;;;;;;;4.75;3.45;;;28.50;63.90;;;;;;5071510;28;20090;-50
2021/09/02 12:38:44;;;;;;;6.10;3.22;;;28.20;62.60;;;;;;5037130;28;20036;-51
2021/09/02 12:41:21;;;;;;;6.93;3.22;;;28.60;63.60;;;;;;5071369;28;20113;-49
2021/09/02 12:44:07;;;;;;;6.65;3.60;;;28.80;63.40;;;;;;5071354;28;20116;-50
2021/09/02 12:47:17;;;;;;;6.07;3.97;;;29.10;62.30;;;;;;5071104;28;20476;-50
2021/09/02 12:49:49;;;;;;;4.40;3.22;;;29.30;62.30;;;;;;5009241;28;20042;-50
2021/09/02 12:52:22;;;;;;;4.35;3.38;;;29.20;63.00;;;;;;5011297;28;20038;-49